Time;durP1;ratioP1;P1;durP2;ratioP2;P2;SDS_P1;SDS_P2;PMS_P1;PMS_P2;Temp;Humidity;BMP_temperature;BMP_pressure;BME280_temperature;BME280_humidity;BME280_pressure;Samples;Min_cycle;Max_cycle;Signal;HPM_P1;HPM_P2
2022/02/15 00:00:56;;;;;;;17.63;9.10;;;;;;;3.41;75.50;99238.75;5093757;28;20040;-74
2022/02/15 00:03:26;;;;;;;16.85;9.00;;;;;;;3.31;75.85;99236.88;5093726;28;20044;-75
2022/02/15 00:05:55;;;;;;;17.77;9.07;;;;;;;3.30;75.84;99237.69;5093993;28;20040;-74
2022/02/15 00:08:25;;;;;;;21.42;10.35;;;;;;;3.33;75.31;99242.81;5093626;28;20048;-74
2022/02/15 00:10:54;;;;;;;19.08;11.25;;;;;;;3.27;75.64;99240.13;5093727;28;20076;-74
2022/02/15 00:13:23;;;;;;;21.63;10.13;;;;;;;3.22;76.11;99234.16;5092310;28;20036;-75
2022/02/15 00:15:52;;;;;;;22.07;10.20;;;;;;;3.23;75.84;99238.38;5093502;28;20040;-75
2022/02/15 00:18:23;;;;;;;16.70;8.10;;;;;;;3.15;75.94;99237.34;5094122;28;20679;-75
2022/02/15 00:20:51;;;;;;;19.80;10.02;;;;;;;3.14;75.32;99244.06;5092328;28;20503;-75
2022/02/15 00:23:20;;;;;;;20.10;10.15;;;;;;;3.14;75.95;99244.06;5092305;28;20055;-75
2022/02/15 00:25:51;;;;;;;22.13;11.27;;;;;;;3.05;75.66;99250.56;5093554;28;20398;-75
2022/02/15 00:28:20;;;;;;;21.73;10.95;;;;;;;3.12;75.73;99245.72;5092291;28;20048;-75
2022/02/15 00:30:51;;;;;;;23.80;10.60;;;;;;;3.18;76.05;99247.50;5093773;28;20052;-74
2022/02/15 00:33:22;;;;;;;21.73;9.52;;;;;;;3.03;75.26;99244.66;5093347;28;20059;-74
2022/02/15 00:35:51;;;;;;;26.55;10.82;;;;;;;2.92;75.77;99246.09;5092186;28;20040;-75
2022/02/15 00:38:23;;;;;;;22.55;9.68;;;;;;;2.84;75.76;99242.53;5093696;28;20044;-74
2022/02/15 00:40:52;;;;;;;21.53;11.20;;;;;;;2.85;76.24;99239.22;5092012;28;20068;-75
2022/02/15 00:43:21;;;;;;;23.63;10.87;;;;;;;2.80;75.90;99240.78;5093254;28;20051;-75
2022/02/15 00:45:50;;;;;;;21.88;10.52;;;;;;;2.75;75.38;99243.19;5093472;28;20727;-74
2022/02/15 00:48:19;;;;;;;20.92;10.63;;;;;;;2.72;75.56;99243.97;5093245;28;20097;-75
2022/02/15 00:50:50;;;;;;;21.40;10.70;;;;;;;2.69;75.50;99238.00;5093527;28;20555;-75
2022/02/15 00:53:19;;;;;;;22.30;9.82;;;;;;;2.72;75.78;99238.94;5093809;28;20051;-74
2022/02/15 00:55:48;;;;;;;21.23;10.68;;;;;;;2.69;75.44;99233.81;5096826;28;20040;-74
2022/02/15 00:58:18;;;;;;;21.73;10.73;;;;;;;2.70;75.86;99245.63;5096141;28;20036;-75
2022/02/15 01:00:47;;;;;;;19.75;10.27;;;;;;;2.64;75.55;99237.91;5096966;28;20039;-75
2022/02/15 01:03:16;;;;;;;;;;;;;;;2.65;76.11;99233.72;5097354;28;20040;-74
2022/02/15 01:05:45;;;;;;;19.65;10.35;;;;;;;2.58;76.03;99235.25;5096819;28;19924;-75
2022/02/15 01:08:15;;;;;;;20.00;10.23;;;;;;;2.58;76.44;99234.41;5095628;28;20398;-75
2022/02/15 01:10:46;;;;;;;20.35;9.80;;;;;;;2.65;76.31;99232.06;5097160;28;20182;-75
2022/02/15 01:13:15;;;;;;;22.10;10.63;;;;;;;2.53;76.57;99231.78;5095491;28;20081;-75
2022/02/15 01:15:45;;;;;;;24.98;10.65;;;;;;;2.45;76.92;99228.22;5095502;28;20078;-74
2022/02/15 01:18:13;;;;;;;;;;;;;;;2.53;76.95;99236.81;5097076;28;20036;-75
2022/02/15 01:20:42;;;;;;;21.40;9.50;;;;;;;2.59;76.95;99239.47;5095438;28;20266;-75
2022/02/15 01:23:12;;;;;;;;;;;;;;;2.62;76.22;99226.94;5096136;28;20067;-75
2022/02/15 01:25:43;;;;;;;18.05;8.98;;;;;;;2.58;76.97;99230.22;5096829;28;20361;-75
2022/02/15 01:28:13;;;;;;;21.02;10.35;;;;;;;2.57;76.60;99225.97;5095526;28;20423;-75
2022/02/15 01:30:42;;;;;;;21.25;9.82;;;;;;;2.65;76.59;99222.00;5096442;28;20047;-74
2022/02/15 01:33:12;;;;;;;23.42;10.80;;;;;;;2.63;76.28;99212.69;5013264;28;20032;-74
2022/02/15 01:35:41;;;;;;;20.42;10.27;;;;;;;2.54;76.61;99213.31;5078038;28;20085;-75
2022/02/15 01:38:13;;;;;;;17.88;9.85;;;;;;;2.54;76.52;99213.31;5079303;28;20048;-74
2022/02/15 01:40:44;;;;;;;20.50;8.00;;;;;;;2.53;77.39;99206.59;5096308;28;20043;-75
2022/02/15 01:43:13;;;;;;;20.38;9.85;;;;;;;2.53;77.34;99206.59;5095586;28;20055;-74
2022/02/15 01:45:42;;;;;;;20.65;10.85;;;;;;;2.44;76.93;99201.34;5094934;28;20047;-74
2022/02/15 01:48:12;;;;;;;19.23;9.88;;;;;;;2.26;77.41;99205.94;5094827;28;20044;-75
2022/02/15 01:50:42;;;;;;;18.35;9.75;;;;;;;2.29;76.98;99200.97;5094828;28;20551;-75
2022/02/15 01:53:11;;;;;;;18.67;10.05;;;;;;;2.25;77.32;99204.25;5095997;28;20040;-74
2022/02/15 01:55:41;;;;;;;19.33;9.73;;;;;;;2.23;77.63;99195.78;5094574;28;20052;-74
2022/02/15 01:58:12;;;;;;;21.40;9.23;;;;;;;2.29;77.78;99206.00;5094732;28;20062;-75
2022/02/15 02:00:45;;;;;;;21.27;9.32;;;;;;;2.31;77.83;99203.50;5096190;28;20106;-75
2022/02/15 02:03:25;;;;;;;20.48;9.00;;;;;;;2.29;77.96;99205.16;5095816;28;20118;-75
2022/02/15 02:05:55;;;;;;;20.52;9.82;;;;;;;2.27;77.08;99197.56;5094125;28;20048;-75
2022/02/15 02:08:28;;;;;;;21.65;9.95;;;;;;;2.31;77.86;99203.50;5094507;28;20126;-75
2022/02/15 02:10:58;;;;;;;17.45;8.82;;;;;;;2.31;77.88;99209.41;5095881;28;20543;-75
2022/02/15 02:13:49;;;;;;;16.38;8.57;;;;;;;2.35;78.01;99206.13;5066417;28;20422;-74
2022/02/15 02:16:18;;;;;;;19.42;9.30;;;;;;;2.43;77.63;99209.72;5094661;28;20512;-74
2022/02/15 02:19:07;;;;;;;23.30;10.02;;;;;;;2.46;77.39;99207.25;5095223;28;20561;-74
2022/02/15 02:21:42;;;;;;;18.38;9.40;;;;;;;2.57;77.66;99208.34;5095518;28;20493;-74
2022/02/15 02:24:14;;;;;;;19.52;8.48;;;;;;;2.63;78.16;99207.66;5094507;28;20397;-74
2022/02/15 02:26:46;;;;;;;17.08;9.25;;;;;;;2.71;77.88;99203.66;5095453;28;20055;-75
2022/02/15 02:29:15;;;;;;;20.67;9.25;;;;;;;2.80;78.22;99218.09;5093989;28;20520;-74
2022/02/15 02:31:47;;;;;;;18.25;9.20;;;;;;;2.83;78.36;99221.56;5094417;28;20130;-75
2022/02/15 02:34:19;;;;;;;19.02;9.70;;;;;;;2.83;77.71;99215.66;5046118;28;20119;-75
2022/02/15 02:36:52;;;;;;;19.88;9.82;;;;;;;2.94;77.82;99221.78;5093991;28;20044;-74
2022/02/15 02:39:26;;;;;;;19.23;9.35;;;;;;;2.95;78.26;99221.81;5094451;28;20379;-74
2022/02/15 02:41:56;;;;;;;23.08;10.30;;;;;;;3.00;78.38;99227.78;5093898;28;20079;-75
2022/02/15 02:44:25;;;;;;;23.20;9.95;;;;;;;3.05;78.86;99237.97;5095309;28;20091;-74
2022/02/15 02:46:54;;;;;;;19.98;10.13;;;;;;;3.14;78.63;99223.06;5093722;28;20040;-74
2022/02/15 02:49:28;;;;;;;24.23;10.52;;;;;;;3.17;78.71;99234.06;5094065;28;20044;-75
2022/02/15 02:51:59;;;;;;;23.52;10.80;;;;;;;3.22;78.88;99231.63;5093640;28;20085;-74
2022/02/15 02:54:28;;;;;;;21.45;10.00;;;;;;;3.24;78.33;99235.88;5093506;28;20459;-75
2022/02/15 02:57:02;;;;;;;18.20;9.57;;;;;;;3.28;78.67;99235.16;5077031;28;20087;-75
2022/02/15 02:59:34;;;;;;;23.20;10.65;;;;;;;3.22;78.81;99219.88;5077579;28;20052;-74
2022/02/15 03:02:09;;;;;;;23.08;9.52;;;;;;;3.33;78.50;99222.63;5093496;28;20055;-74
2022/02/15 03:04:38;;;;;;;;;;;;;;;3.35;78.40;99223.50;5094171;28;20036;-75
2022/02/15 03:07:09;;;;;;;15.57;8.57;;;;;;;3.36;78.63;99221.00;5093462;28;19927;-74
2022/02/15 03:09:39;;;;;;;20.00;9.77;;;;;;;3.27;78.39;99225.00;5093340;28;20058;-75
2022/02/15 03:12:10;;;;;;;21.63;10.15;;;;;;;3.30;78.37;99225.09;5093265;28;20047;-74
2022/02/15 03:14:45;;;;;;;20.45;9.05;;;;;;;3.12;78.90;99195.28;5077276;28;20048;-75
2022/02/15 03:17:17;;;;;;;18.98;9.43;;;;;;;3.24;78.89;99230.84;5092835;28;20075;-75
2022/02/15 03:19:47;;;;;;;21.25;10.23;;;;;;;3.18;78.78;99227.34;5094369;28;20528;-75
2022/02/15 03:22:18;;;;;;;20.05;10.68;;;;;;;3.23;78.50;99223.25;5093049;28;20044;-75
2022/02/15 03:24:48;;;;;;;17.98;9.20;;;;;;;3.07;78.10;99223.75;5093119;28;20048;-75
2022/02/15 03:27:18;;;;;;;18.88;9.32;;;;;;;3.00;78.66;99206.81;5093051;28;20044;-75
2022/02/15 03:29:49;;;;;;;20.25;9.25;;;;;;;3.06;78.57;99214.50;5076724;28;20139;-75
2022/02/15 03:32:19;;;;;;;16.92;8.70;;;;;;;2.87;77.86;99220.81;5092932;28;20044;-75
2022/02/15 03:34:51;;;;;;;16.25;8.13;;;;;;;2.56;78.21;99216.75;5093204;28;20497;-75
2022/02/15 03:37:24;;;;;;;20.15;9.18;;;;;;;2.49;79.12;99203.97;5044417;28;20055;-75
2022/02/15 03:39:56;;;;;;;21.55;9.82;;;;;;;2.51;78.21;99213.25;5092866;28;20040;-75
2022/02/15 03:45:03;;;;;;;18.17;9.32;;;;;;;2.41;78.78;99211.34;5093087;28;20055;-75
2022/02/15 03:47:48;;;;;;;18.48;9.18;;;;;;;2.23;78.98;99205.84;5092771;28;20055;-74
2022/02/15 03:50:18;;;;;;;16.98;8.40;;;;;;;2.08;79.46;99210.53;5092729;28;20044;-74
2022/02/15 03:52:50;;;;;;;20.42;9.13;;;;;;;2.01;78.73;99213.69;5092583;28;20485;-75
2022/02/15 03:55:19;;;;;;;21.10;10.15;;;;;;;1.97;79.17;99216.94;5093530;28;20059;-75
2022/02/15 03:57:48;;;;;;;43.47;15.13;;;;;;;2.04;80.00;99214.63;5092609;28;20047;-74
2022/02/15 04:00:17;;;;;;;53.60;19.23;;;;;;;2.19;80.35;99214.16;5094023;28;20132;-75
2022/02/15 04:02:58;;;;;;;36.78;16.48;;;;;;;2.37;79.89;99214.63;5092515;28;20570;-74
2022/02/15 04:05:28;;;;;;;34.78;14.90;;;;;;;2.27;79.64;99217.72;5092827;28;20056;-74
2022/02/15 04:08:00;;;;;;;38.78;15.38;;;;;;;2.18;79.31;99202.38;5092836;28;20504;-75
2022/02/15 04:10:30;;;;;;;33.42;15.32;;;;;;;2.00;80.01;99212.84;5092486;28;20040;-75
2022/02/15 04:12:59;;;;;;;31.17;14.32;;;;;;;1.91;80.09;99206.72;5092298;28;20055;-75
2022/02/15 04:15:29;;;;;;;24.98;12.20;;;;;;;1.93;79.38;99200.91;5092610;28;20040;-74
2022/02/15 04:18:00;;;;;;;24.70;11.63;;;;;;;1.85;79.70;99206.53;5092418;28;20039;-75
2022/02/15 04:20:30;;;;;;;;;;;;;;;1.78;79.57;99204.69;5093095;28;20494;-75
2022/02/15 04:23:00;;;;;;;24.90;11.47;;;;;;;1.58;79.24;99208.34;5075771;28;19950;-74
2022/02/15 04:25:30;;;;;;;19.67;9.80;;;;;;;1.26;79.28;99208.31;5092684;28;20051;-75
2022/02/15 04:28:02;;;;;;;18.77;8.98;;;;;;;1.39;79.46;99216.22;5094574;28;20052;-74
2022/02/15 04:30:33;;;;;;;19.45;9.95;;;;;;;1.59;80.50;99222.63;5080315;28;20048;-74
2022/02/15 04:33:02;;;;;;;22.75;10.52;;;;;;;1.79;80.68;99219.84;5079722;28;20100;-74
2022/02/15 04:35:31;;;;;;;24.30;9.83;;;;;;;1.79;79.81;99224.00;5097725;28;20033;-74
2022/02/15 04:38:02;;;;;;;19.30;9.52;;;;;;;1.82;80.78;99226.63;5096339;28;20800;-75
2022/02/15 04:40:31;;;;;;;23.83;10.25;;;;;;;1.72;80.48;99227.19;5097763;28;20074;-75
2022/02/15 04:43:04;;;;;;;18.00;9.82;;;;;;;1.59;79.94;99233.53;5096149;28;20044;-75
2022/02/15 04:45:33;;;;;;;21.70;10.70;;;;;;;1.47;80.55;99237.38;5096113;28;20047;-75
2022/02/15 04:48:04;;;;;;;19.73;9.20;;;;;;;1.54;80.67;99236.72;5079702;28;20047;-75
2022/02/15 04:50:34;;;;;;;16.30;9.27;;;;;;;1.50;80.25;99243.34;5096113;28;20083;-75
2022/02/15 04:53:09;;;;;;;22.75;10.57;;;;;;;1.46;80.30;99245.72;5079986;28;20044;-75
2022/02/15 04:55:38;;;;;;;21.70;10.25;;;;;;;1.50;80.71;99252.53;5095763;28;20494;-74
2022/02/15 04:58:08;;;;;;;20.70;10.57;;;;;;;1.47;80.31;99258.34;5095855;28;20075;-74
2022/02/15 05:00:41;;;;;;;22.33;10.85;;;;;;;1.36;80.45;99259.69;5079754;28;20517;-75
2022/02/15 05:03:30;;;;;;;20.25;10.13;;;;;;;1.51;80.46;99254.25;5054442;28;20466;-74
2022/02/15 05:06:02;;;;;;;22.05;10.77;;;;;;;1.51;80.85;99259.28;5095801;28;20131;-75
2022/02/15 05:08:33;;;;;;;22.45;10.80;;;;;;;1.57;80.53;99259.44;5095809;28;20055;-74
2022/02/15 05:11:06;;;;;;;24.02;12.32;;;;;;;1.68;80.61;99268.16;5097902;28;20493;-75
2022/02/15 05:13:43;;;;;;;24.95;11.55;;;;;;;1.69;81.13;99272.34;5095672;28;20051;-75
2022/02/15 05:16:32;;;;;;;22.63;10.88;;;;;;;1.81;81.26;99268.53;5096359;28;20040;-74
2022/02/15 05:19:15;;;;;;;20.35;11.23;;;;;;;1.94;80.87;99265.50;5095537;28;20505;-75
2022/02/15 05:21:48;;;;;;;25.30;10.90;;;;;;;2.00;81.18;99272.38;5095494;28;20059;-75
2022/02/15 05:24:19;;;;;;;20.00;10.75;;;;;;;2.07;81.45;99270.84;5096587;28;20396;-75
2022/02/15 05:26:56;;;;;;;23.15;11.00;;;;;;;2.09;81.12;99272.59;5095699;28;20048;-74
2022/02/15 05:29:37;;;;;;;21.70;11.20;;;;;;;2.04;80.89;99279.19;5095352;28;20071;-74
2022/02/15 05:32:15;;;;;;;;;;;;;;;2.17;81.24;99285.38;5096895;28;20139;-74
2022/02/15 05:34:45;;;;;;;25.40;11.15;;;;;;;2.28;80.74;99282.34;5095172;28;19958;-74
2022/02/15 05:37:16;;;;;;;27.55;12.45;;;;;;;2.38;80.76;99286.78;5095314;28;20396;-74
2022/02/15 05:39:51;;;;;;;26.52;12.23;;;;;;;2.44;80.95;99297.03;5094533;28;20454;-74
2022/02/15 05:42:30;;;;;;;27.35;11.68;;;;;;;2.53;81.70;99297.25;5096332;28;20039;-74
2022/02/15 05:45:01;;;;;;;21.80;11.38;;;;;;;2.51;81.36;99293.84;5094947;28;20040;-74
2022/02/15 05:47:30;;;;;;;;;;;;;;;2.45;80.99;99303.75;5078761;28;20062;-75
2022/02/15 05:52:43;;;;;;;23.25;11.27;;;;;;;2.43;81.08;99310.41;5096508;28;20426;-74
2022/02/15 05:55:18;;;;;;;25.27;12.18;;;;;;;2.50;81.02;99299.69;5094523;28;20059;-75
2022/02/15 05:57:48;;;;;;;19.35;10.05;;;;;;;2.59;81.17;99299.91;5094791;28;20044;-74
2022/02/15 06:00:18;;;;;;;21.17;10.75;;;;;;;2.64;81.34;99300.00;5094667;28;20071;-74
2022/02/15 06:02:52;;;;;;;25.50;12.93;;;;;;;2.62;81.06;99300.00;5094716;28;20516;-75
2022/02/15 06:05:40;;;;;;;23.17;11.52;;;;;;;2.48;80.77;99298.81;5094897;28;20051;-75
2022/02/15 06:08:10;;;;;;;22.20;10.00;;;;;;;2.57;80.18;99309.09;5094829;28;20036;-75
2022/02/15 06:10:44;;;;;;;23.52;10.85;;;;;;;2.51;80.12;99303.94;5094462;28;20052;-75
2022/02/15 06:13:26;;;;;;;20.75;10.57;;;;;;;2.45;80.81;99308.78;5095668;28;20047;-74
2022/02/15 06:15:56;;;;;;;22.58;12.10;;;;;;;2.41;80.35;99317.09;5094670;28;20048;-75
2022/02/15 06:18:35;;;;;;;25.90;12.20;;;;;;;2.35;80.94;99311.88;5094399;28;20570;-75
2022/02/15 06:21:07;;;;;;;22.98;11.52;;;;;;;2.44;80.50;99319.69;5094314;28;20058;-75
2022/02/15 06:23:38;;;;;;;22.77;11.43;;;;;;;2.38;80.62;99331.25;5094224;28;20051;-74
2022/02/15 06:26:13;;;;;;;27.95;12.75;;;;;;;2.44;81.02;99336.47;5094216;28;20101;-75
2022/02/15 06:29:08;;;;;;;28.48;12.48;;;;;;;2.48;80.30;99344.13;5095389;28;20040;-75
2022/02/15 06:31:44;;;;;;;31.52;13.77;;;;;;;2.63;81.08;99351.22;5094384;28;20078;-75
2022/02/15 06:34:19;;;;;;;29.75;13.85;;;;;;;2.55;79.98;99351.03;5094317;28;20477;-75
2022/02/15 06:36:48;;;;;;;29.38;14.80;;;;;;;2.47;80.52;99362.56;5093932;28;20046;-75
2022/02/15 06:39:20;;;;;;;32.17;15.27;;;;;;;2.34;81.07;99365.59;5093923;28;20106;-75
2022/02/15 06:41:55;;;;;;;27.38;13.23;;;;;;;2.50;81.13;99366.81;5094192;28;20047;-75
2022/02/15 06:44:24;;;;;;;25.25;12.13;;;;;;;2.49;81.02;99368.50;5093815;28;20055;-75
2022/02/15 06:46:53;;;;;;;27.92;12.85;;;;;;;2.59;81.19;99367.09;5094113;28;20036;-75
2022/02/15 06:49:27;;;;;;;27.75;12.85;;;;;;;2.77;81.91;99366.69;5093711;28;20044;-75
2022/02/15 06:52:08;;;;;;;25.67;13.23;;;;;;;2.88;80.84;99365.28;5094911;28;20063;-75
2022/02/15 06:54:37;;;;;;;27.27;13.25;;;;;;;2.91;81.83;99368.72;5093538;28;20382;-74
2022/02/15 06:57:10;;;;;;;25.33;12.07;;;;;;;2.88;80.67;99373.69;5094060;28;20050;-75
2022/02/15 06:59:43;;;;;;;24.42;13.00;;;;;;;3.00;80.95;99378.19;5093530;28;20054;-75
2022/02/15 07:02:12;;;;;;;27.27;14.40;;;;;;;3.21;81.71;99382.06;5094607;28;20078;-75
2022/02/15 07:04:40;;;;;;;33.77;16.87;;;;;;;3.37;81.90;99384.13;5094889;28;20032;-75
2022/02/15 07:07:10;;;;;;;49.22;22.15;;;;;;;3.55;80.87;99387.88;5093368;28;20265;-75
2022/02/15 07:09:40;;;;;;;46.15;21.63;;;;;;;3.69;81.01;99382.31;5094848;28;20040;-75
2022/02/15 07:12:17;;;;;;;42.90;22.30;;;;;;;3.85;81.31;99389.38;5093383;28;20048;-75
2022/02/15 07:14:56;;;;;;;;;;;;;;;3.96;81.21;99382.88;5077085;28;20414;-75
2022/02/15 07:17:39;;;;;;;33.67;18.00;;;;;;;4.07;80.71;99386.50;5093484;28;19920;-75
2022/02/15 07:20:13;;;;;;;33.53;17.02;;;;;;;4.10;80.61;99389.91;5093267;28;20048;-75
2022/02/15 07:22:53;;;;;;;32.85;15.60;;;;;;;4.10;80.20;99389.91;5094621;28;20422;-75
2022/02/15 07:25:38;;;;;;;28.95;16.25;;;;;;;4.11;80.28;99386.53;5093084;28;20134;-75
2022/02/15 07:28:35;;;;;;;31.15;16.42;;;;;;;4.14;80.79;99379.88;5093133;28;20404;-75
2022/02/15 07:31:04;;;;;;;31.92;16.48;;;;;;;3.99;79.94;99377.91;5093045;28;20048;-75
2022/02/15 07:33:33;;;;;;;31.20;16.35;;;;;;;4.19;79.97;99375.78;5093202;28;20083;-75
2022/02/15 07:36:05;;;;;;;31.83;17.23;;;;;;;4.36;79.95;99376.09;5093235;28;20044;-75
2022/02/15 07:38:33;;;;;;;;;;;;;;;4.54;79.64;99374.75;5093197;28;20044;-74
2022/02/15 07:41:03;;;;;;;38.55;16.95;;;;;;;4.62;79.29;99377.41;5093033;28;20258;-75
2022/02/15 07:43:31;;;;;;;33.97;18.08;;;;;;;4.77;79.74;99375.16;5093872;28;20040;-74
2022/02/15 07:46:10;;;;;;;36.97;17.83;;;;;;;5.01;78.86;99377.25;5092782;28;20444;-75
2022/02/15 07:48:39;;;;;;;34.63;17.30;;;;;;;5.27;78.69;99386.97;5094180;28;20126;-75
2022/02/15 07:51:08;;;;;;;37.30;17.75;;;;;;;5.34;78.28;99383.69;5093795;28;20135;-75
2022/02/15 07:53:38;;;;;;;29.80;16.35;;;;;;;5.50;77.87;99388.97;5074570;28;20040;-75
2022/02/15 07:56:08;;;;;;;34.20;16.55;;;;;;;5.68;77.23;99381.66;5085042;28;20052;-75
2022/02/15 07:58:37;;;;;;;33.92;16.55;;;;;;;5.83;76.77;99376.81;5093655;28;20108;-74
2022/02/15 08:01:06;;;;;;;25.70;13.90;;;;;;;5.86;76.48;99370.09;5092403;28;20389;-75
2022/02/15 08:03:38;;;;;;;30.65;15.15;;;;;;;5.93;75.92;99371.03;5057913;28;20071;-74
2022/02/15 08:06:08;;;;;;;29.17;13.85;;;;;;;6.12;75.59;99362.81;5092523;28;20082;-75
2022/02/15 08:08:38;;;;;;;24.30;12.40;;;;;;;6.20;75.30;99356.16;5092503;28;20101;-75
2022/02/15 08:11:07;;;;;;;25.05;12.90;;;;;;;6.36;75.16;99355.50;5091145;28;20052;-75
2022/02/15 08:13:40;;;;;;;26.13;13.05;;;;;;;6.43;74.33;99356.44;5082194;28;20094;-74
2022/02/15 08:16:09;;;;;;;23.50;12.65;;;;;;;6.61;74.36;99360.00;5072246;28;20105;-75
2022/02/15 08:18:42;;;;;;;23.85;12.50;;;;;;;6.69;73.97;99353.28;5055568;28;20564;-76
2022/02/15 08:21:11;;;;;;;25.00;13.32;;;;;;;6.71;73.25;99350.78;5072075;28;20049;-75
2022/02/15 08:24:01;;;;;;;25.52;14.13;;;;;;;6.90;73.25;99351.78;5079039;28;20052;-74
2022/02/15 08:26:31;;;;;;;26.20;13.75;;;;;;;7.05;73.09;99336.72;5082011;28;20041;-75
2022/02/15 08:29:00;;;;;;;;;;;;;;;7.15;72.32;99349.47;5093770;28;20047;-76
2022/02/15 08:31:29;;;;;;;24.73;12.93;;;;;;;7.31;72.59;99355.50;5093316;28;19926;-75
2022/02/15 08:33:59;;;;;;;21.90;11.27;;;;;;;7.45;72.00;99356.44;5093424;28;20051;-75
2022/02/15 08:36:28;;;;;;;23.98;11.90;;;;;;;7.55;71.70;99355.66;5093879;28;20040;-74
2022/02/15 08:38:57;;;;;;;25.10;12.93;;;;;;;7.60;71.20;99359.09;5093406;28;20032;-75
2022/02/15 08:41:26;;;;;;;27.65;12.23;;;;;;;7.68;71.24;99357.41;5092005;28;20037;-75
2022/02/15 08:43:55;;;;;;;20.50;10.90;;;;;;;7.89;70.97;99360.06;5093323;28;20039;-75
2022/02/15 08:46:25;;;;;;;24.95;12.02;;;;;;;8.21;71.12;99365.28;5093317;28;20555;-76
2022/02/15 08:48:54;;;;;;;22.53;11.60;;;;;;;8.38;70.82;99367.91;5093549;28;20126;-75
2022/02/15 08:51:25;;;;;;;24.85;12.20;;;;;;;8.43;69.98;99361.16;5075774;28;20048;-75
2022/02/15 08:53:54;;;;;;;25.00;11.20;;;;;;;8.62;68.99;99378.16;5093620;28;20044;-74
2022/02/15 08:56:24;;;;;;;23.02;11.68;;;;;;;8.76;68.72;99366.31;5093006;28;20497;-74
2022/02/15 08:58:52;;;;;;;;;;;;;;;8.88;68.52;99371.41;5093459;28;20054;-74
2022/02/15 09:01:21;;;;;;;19.83;10.48;;;;;;;9.06;68.08;99371.44;5109431;28;19951;-74
2022/02/15 09:03:50;;;;;;;21.48;11.13;;;;;;;9.15;67.86;99376.53;5092033;28;20070;-74
2022/02/15 09:06:20;;;;;;;20.17;10.18;;;;;;;9.12;67.49;99376.50;5092961;28;20040;-74
2022/02/15 09:08:52;;;;;;;21.10;10.43;;;;;;;9.08;67.41;99379.91;5092111;28;20493;-74
2022/02/15 09:11:21;;;;;;;20.38;10.23;;;;;;;9.04;66.43;99378.22;5093384;28;20497;-75
2022/02/15 09:13:50;;;;;;;19.67;10.10;;;;;;;9.28;67.03;99388.41;5068723;28;20043;-75
2022/02/15 09:16:20;;;;;;;21.83;10.60;;;;;;;9.32;66.25;99379.06;5075778;28;20157;-74
2022/02/15 09:18:49;;;;;;;15.47;8.70;;;;;;;9.49;66.11;99379.03;5093134;28;20071;-74
2022/02/15 09:21:18;;;;;;;20.93;10.13;;;;;;;9.49;65.75;99379.03;5078281;28;20276;-75
2022/02/15 09:23:48;;;;;;;18.98;9.65;;;;;;;9.18;65.27;99320.50;5096098;28;20557;-75
2022/02/15 09:26:18;;;;;;;20.17;10.50;;;;;;;9.70;65.31;99401.94;5093699;28;20116;-74
2022/02/15 09:28:48;;;;;;;19.58;10.13;;;;;;;9.68;65.11;99403.63;5092988;28;20040;-75
2022/02/15 09:31:17;;;;;;;20.35;9.75;;;;;;;9.72;64.44;99400.22;5096204;28;20044;-74
2022/02/15 09:33:52;;;;;;;14.27;7.90;;;;;;;9.83;64.62;99398.50;5096177;28;20039;-73
2022/02/15 09:36:25;;;;;;;18.88;9.48;;;;;;;9.78;63.82;99405.31;5093983;28;20438;-76
2022/02/15 09:38:56;;;;;;;19.02;9.80;;;;;;;10.12;63.77;99406.09;5095320;28;20052;-74
2022/02/15 09:41:28;;;;;;;;;;;;;;;10.29;63.83;99400.09;5062350;28;20044;-74
2022/02/15 09:43:57;;;;;;;19.23;8.98;;;;;;;10.64;63.30;99402.47;5092988;28;20419;-74
2022/02/15 09:46:27;;;;;;;19.55;9.57;;;;;;;10.70;63.25;99402.44;5088507;28;20048;-75
2022/02/15 09:48:57;;;;;;;22.63;10.07;;;;;;;10.65;62.75;99402.44;5095954;28;20501;-74
2022/02/15 09:51:26;;;;;;;19.17;10.18;;;;;;;10.53;62.07;99397.41;5096483;28;20398;-75
2022/02/15 09:53:58;;;;;;;19.48;9.63;;;;;;;10.41;61.68;99402.59;5095967;28;20048;-75
2022/02/15 09:56:29;;;;;;;18.42;9.68;;;;;;;10.10;62.32;99401.00;5094875;28;20102;-73
2022/02/15 09:58:58;;;;;;;17.90;8.77;;;;;;;10.12;62.08;99395.91;5096112;28;20046;-74
2022/02/15 10:01:27;;;;;;;16.63;9.57;;;;;;;10.25;61.97;99408.59;5095341;28;20063;-74
2022/02/15 10:03:59;;;;;;;17.98;9.20;;;;;;;10.47;62.41;99402.56;5096119;28;20051;-73
2022/02/15 10:06:30;;;;;;;17.77;9.60;;;;;;;10.54;62.36;99391.47;5096078;28;20059;-72
2022/02/15 10:08:59;;;;;;;19.25;10.60;;;;;;;10.48;62.70;99406.81;5095799;28;20040;-73
2022/02/15 10:11:37;;;;;;;15.98;9.35;;;;;;;10.29;62.95;99406.91;5095970;28;20110;-73
2022/02/15 10:14:09;;;;;;;16.00;9.18;;;;;;;10.50;63.03;99394.91;5087346;28;20489;-72
2022/02/15 10:16:47;;;;;;;18.63;9.38;;;;;;;10.69;62.45;99395.63;5066265;28;20040;-73
2022/02/15 10:19:22;;;;;;;15.80;9.20;;;;;;;11.02;62.42;99389.44;5095544;28;20044;-72
2022/02/15 10:21:54;;;;;;;17.88;8.98;;;;;;;10.92;61.38;99382.75;5095459;28;20382;-72
2022/02/15 10:24:25;;;;;;;16.23;9.50;;;;;;;10.97;61.14;99370.75;5093865;28;20040;-72
2022/02/15 10:27:00;;;;;;;20.23;10.10;;;;;;;11.19;60.84;99383.38;5095165;28;20052;-72
2022/02/15 10:29:31;;;;;;;19.08;10.02;;;;;;;11.45;60.39;99380.56;5093713;28;20490;-76
2022/02/15 10:32:01;;;;;;;15.25;9.55;;;;;;;11.58;59.80;99371.94;5094897;28;20036;-73
2022/02/15 10:34:32;;;;;;;17.17;9.13;;;;;;;11.52;59.63;99366.88;5095593;28;20425;-75
2022/02/15 10:37:02;;;;;;;20.52;10.05;;;;;;;11.80;58.99;99358.13;5095935;28;20139;-75
2022/02/15 10:39:42;;;;;;;17.60;8.82;;;;;;;11.76;58.51;99369.22;5095928;28;20047;-74
2022/02/15 10:42:14;;;;;;;17.23;9.10;;;;;;;11.83;58.19;99372.59;5090319;28;20036;-74
2022/02/15 10:44:52;;;;;;;14.82;8.60;;;;;;;11.91;57.91;99384.41;5093307;28;20423;-74
2022/02/15 10:47:21;;;;;;;17.40;9.57;;;;;;;12.13;57.60;99381.59;5093255;28;20090;-73
2022/02/15 10:50:00;;;;;;;14.95;9.10;;;;;;;12.13;57.65;99386.72;5094969;28;20052;-74
2022/02/15 10:52:30;;;;;;;16.27;8.77;;;;;;;12.16;57.39;99373.91;5095030;28;20040;-74
2022/02/15 10:54:59;;;;;;;;;;;;;;;12.37;57.32;99382.16;5095401;28;20079;-72
2022/02/15 10:57:30;;;;;;;17.25;9.07;;;;;;;12.33;57.27;99379.66;5094743;28;19920;-73
2022/02/15 11:00:03;;;;;;;16.67;9.68;;;;;;;12.21;57.22;99379.81;5094580;28;20040;-73
2022/02/15 11:02:38;;;;;;;18.00;9.57;;;;;;;12.23;57.61;99380.63;5093700;28;20048;-73
2022/02/15 11:05:11;;;;;;;19.70;9.93;;;;;;;12.14;57.66;99388.44;5092891;28;20044;-75
2022/02/15 11:07:42;;;;;;;16.38;8.75;;;;;;;11.94;57.61;99381.84;5093128;28;20416;-73
2022/02/15 11:10:19;;;;;;;14.23;8.45;;;;;;;11.71;58.03;99377.81;5093907;28;20393;-73
2022/02/15 11:12:52;;;;;;;19.00;9.07;;;;;;;11.75;58.48;99382.88;5093010;28;20032;-74
2022/02/15 11:15:24;;;;;;;14.00;7.68;;;;;;;11.77;58.37;99386.28;5093802;28;20048;-72
2022/02/15 11:17:54;;;;;;;16.13;8.70;;;;;;;11.76;58.36;99379.44;5093237;28;20444;-73
2022/02/15 11:20:27;;;;;;;17.35;8.70;;;;;;;11.52;58.63;99361.78;5094302;28;20051;-73
2022/02/15 11:22:59;;;;;;;15.90;8.65;;;;;;;11.67;58.81;99376.13;5077023;28;20074;-73
2022/02/15 11:25:33;;;;;;;15.75;8.10;;;;;;;11.38;58.93;99323.59;5094034;28;20051;-72
2022/02/15 11:28:13;;;;;;;17.63;8.30;;;;;;;11.50;59.05;99371.16;5093094;28;20050;-75
2022/02/15 11:30:47;;;;;;;15.65;8.00;;;;;;;11.69;59.01;99367.59;5094485;28;20538;-73
2022/02/15 11:33:22;;;;;;;14.98;8.30;;;;;;;11.96;58.89;99369.88;5094226;28;20052;-74
2022/02/15 11:35:53;;;;;;;17.35;9.40;;;;;;;12.00;58.34;99371.50;5094036;28;20143;-73
2022/02/15 11:38:22;;;;;;;15.63;7.82;;;;;;;12.06;58.02;99363.78;5093325;28;20044;-74
2022/02/15 11:41:05;;;;;;;17.88;9.00;;;;;;;11.81;58.42;99364.06;5094005;28;20044;-72
2022/02/15 11:43:36;;;;;;;17.73;8.68;;;;;;;11.84;58.96;99364.88;5094474;28;20047;-73
2022/02/15 11:46:07;;;;;;;15.40;8.60;;;;;;;12.14;58.55;99367.97;5092769;28;20082;-73
2022/02/15 11:48:39;;;;;;;17.40;8.23;;;;;;;12.34;58.13;99361.72;5094188;28;20101;-73
2022/02/15 11:51:19;;;;;;;18.77;7.75;;;;;;;12.32;58.01;99367.72;5095014;28;20048;-73
2022/02/15 11:53:49;;;;;;;14.80;7.95;;;;;;;12.34;57.55;99365.97;5093965;28;20105;-74
2022/02/15 11:56:18;;;;;;;14.27;7.72;;;;;;;12.16;57.92;99356.00;5093607;28;20079;-74
2022/02/15 11:58:53;;;;;;;15.60;7.68;;;;;;;12.04;58.17;99362.94;5092647;28;20512;-74